createdAt,value
2019-02-25T00:00:58.561Z,33.50
2019-02-25T00:03:28.171Z,33.83
2019-02-25T00:05:57.918Z,34.09
2019-02-25T00:08:27.194Z,34.31
2019-02-25T00:10:57.756Z,34.45
2019-02-25T00:13:26.980Z,34.66
2019-02-25T00:15:56.797Z,34.49
2019-02-25T00:18:26.028Z,34.75
2019-02-25T00:20:57.032Z,35.00
2019-02-25T00:23:27.007Z,35.08
2019-02-25T00:25:57.699Z,34.96
2019-02-25T00:28:27.503Z,35.10
2019-02-25T00:30:58.345Z,35.24
2019-02-25T00:33:27.847Z,35.37
2019-02-25T00:35:57.643Z,35.49
2019-02-25T00:38:27.249Z,35.61
2019-02-25T00:40:56.484Z,35.76
2019-02-25T00:43:26.534Z,36.12
2019-02-25T00:45:55.923Z,36.35
2019-02-25T00:48:25.464Z,36.52
2019-02-25T00:50:54.692Z,36.61
2019-02-25T00:53:28.848Z,36.99
2019-02-25T00:55:59.327Z,36.92
2019-02-25T00:58:28.550Z,37.44
2019-02-25T01:00:58.104Z,37.65
2019-02-25T01:03:27.346Z,37.41
2019-02-25T01:05:57.030Z,37.70
2019-02-25T01:08:27.848Z,37.79
2019-02-25T01:10:57.650Z,37.95
2019-02-25T01:13:26.960Z,38.23
2019-02-25T01:15:56.608Z,38.35
2019-02-25T01:18:26.135Z,38.51
2019-02-25T01:20:58.095Z,38.40
2019-02-25T01:23:27.396Z,38.30
2019-02-25T01:25:57.361Z,38.30
2019-02-25T01:28:26.715Z,38.46
2019-02-25T01:30:56.441Z,38.37
2019-02-25T01:33:25.839Z,38.30
2019-02-25T01:35:55.113Z,38.00
2019-02-25T01:38:24.446Z,37.87
2019-02-25T01:40:54.640Z,37.83
2019-02-25T01:43:24.183Z,37.84
2019-02-25T01:45:54.111Z,37.98
2019-02-25T01:48:23.420Z,37.99
2019-02-25T01:50:53.888Z,37.88
2019-02-25T01:53:23.388Z,37.68
2019-02-25T01:55:52.640Z,37.49
2019-02-25T01:58:21.985Z,37.19
2019-02-25T02:00:51.569Z,37.27
2019-02-25T02:03:21.424Z,37.25
2019-02-25T02:05:50.738Z,37.02
2019-02-25T02:08:20.310Z,36.79
2019-02-25T02:10:49.562Z,36.73
2019-02-25T02:13:18.801Z,37.33
2019-02-25T02:15:48.050Z,37.11
2019-02-25T02:18:17.343Z,37.10
2019-02-25T02:20:46.559Z,36.48
2019-02-25T02:23:15.823Z,35.55
2019-02-25T02:25:45.335Z,35.40
2019-02-25T02:28:14.567Z,34.66
2019-02-25T02:30:43.832Z,34.51
2019-02-25T02:33:13.452Z,34.05
2019-02-25T02:35:45.773Z,34.04
2019-02-25T02:38:15.616Z,35.14
2019-02-25T02:40:45.434Z,36.65
2019-02-25T02:43:14.809Z,37.48
2019-02-25T02:45:57.357Z,37.88
2019-02-25T02:48:30.592Z,38.81
2019-02-25T02:50:59.884Z,39.04
2019-02-25T02:53:29.222Z,38.95
2019-02-25T02:55:58.792Z,38.59
2019-02-25T02:58:28.152Z,38.44
2019-02-25T03:00:57.412Z,38.51
2019-02-25T03:03:26.739Z,38.57
2019-02-25T03:05:56.590Z,38.42
2019-02-25T03:08:26.146Z,38.41
2019-02-25T03:10:55.416Z,38.44
2019-02-25T03:13:24.695Z,38.59
2019-02-25T03:15:54.244Z,38.82
2019-02-25T03:18:23.465Z,39.32
2019-02-25T03:20:52.698Z,39.55
2019-02-25T03:23:24.368Z,40.15
2019-02-25T03:25:54.118Z,40.95
2019-02-25T03:28:23.593Z,41.61
2019-02-25T03:30:53.269Z,42.09
2019-02-25T03:33:23.050Z,42.39
2019-02-25T03:35:52.615Z,42.48
2019-02-25T03:38:21.931Z,42.60
2019-02-25T03:40:53.531Z,42.73
2019-02-25T03:43:23.088Z,42.86
2019-02-25T03:45:52.356Z,43.19
2019-02-25T03:48:21.593Z,43.08
2019-02-25T03:50:51.130Z,43.19
2019-02-25T03:53:20.417Z,43.47
2019-02-25T03:55:49.609Z,43.68
2019-02-25T03:58:22.299Z,43.62
2019-02-25T04:00:52.149Z,43.85
2019-02-25T04:03:21.381Z,43.77
2019-02-25T04:05:50.747Z,44.17
2019-02-25T04:08:20.000Z,44.47
2019-02-25T04:10:49.245Z,44.11
2019-02-25T04:13:18.463Z,43.90
2019-02-25T04:15:48.099Z,43.81
2019-02-25T04:18:17.417Z,43.92
2019-02-25T04:20:46.655Z,43.92
2019-02-25T04:23:15.941Z,43.93
2019-02-25T04:25:45.462Z,44.02
2019-02-25T04:28:14.696Z,43.69
2019-02-25T04:30:43.953Z,43.65
2019-02-25T04:33:14.475Z,43.62
2019-02-25T04:35:43.709Z,44.24
2019-02-25T04:38:12.975Z,44.27
2019-02-25T04:40:42.279Z,44.05
2019-02-25T04:43:11.786Z,43.84
2019-02-25T04:45:41.102Z,43.73
2019-02-25T04:48:10.328Z,43.65
2019-02-25T04:50:39.568Z,43.80
2019-02-25T04:53:08.838Z,43.87
2019-02-25T04:55:38.059Z,43.79
2019-02-25T04:58:07.595Z,43.69
2019-02-25T05:00:36.825Z,43.66
2019-02-25T05:03:06.129Z,44.23
2019-02-25T05:05:35.680Z,43.98
2019-02-25T05:08:05.755Z,44.04
2019-02-25T05:10:35.017Z,44.36
2019-02-25T05:13:05.626Z,44.59
2019-02-25T05:15:35.863Z,44.76
2019-02-25T05:18:07.852Z,44.92
2019-02-25T05:20:37.137Z,44.91
2019-02-25T05:23:06.853Z,44.93
2019-02-25T05:25:36.068Z,45.06
2019-02-25T05:28:06.064Z,45.01
2019-02-25T05:30:35.604Z,45.70
2019-02-25T05:33:04.877Z,45.90
2019-02-25T05:35:34.128Z,46.01
2019-02-25T05:38:05.393Z,46.30
2019-02-25T05:40:34.629Z,46.46
2019-02-25T05:43:03.897Z,46.53
2019-02-25T05:45:33.167Z,47.18
2019-02-25T05:48:05.674Z,47.71
2019-02-25T05:50:34.962Z,47.13
2019-02-25T05:53:04.453Z,46.73
2019-02-25T05:55:33.955Z,46.52
2019-02-25T05:58:06.050Z,46.49
2019-02-25T06:00:35.661Z,46.62
2019-02-25T06:03:05.174Z,46.35
2019-02-25T06:05:34.463Z,46.11
2019-02-25T06:08:04.835Z,46.19
2019-02-25T06:10:34.093Z,46.26
2019-02-25T06:13:03.676Z,45.78
2019-02-25T06:15:32.944Z,45.68
2019-02-25T06:18:03.505Z,45.72
2019-02-25T06:20:33.057Z,45.82
2019-02-25T06:23:02.699Z,46.21
2019-02-25T06:25:31.974Z,46.27
2019-02-25T06:28:06.628Z,46.61
2019-02-25T06:30:35.887Z,46.52
2019-02-25T06:33:05.468Z,46.78
2019-02-25T06:35:34.740Z,46.69
2019-02-25T06:38:04.841Z,46.74
2019-02-25T06:40:34.467Z,46.87
2019-02-25T06:43:03.742Z,47.21
2019-02-25T06:45:32.992Z,47.41
2019-02-25T06:48:03.098Z,47.27
2019-02-25T06:50:32.534Z,47.20
2019-02-25T06:53:02.029Z,47.44
2019-02-25T06:55:31.842Z,47.51
2019-02-25T06:58:01.114Z,47.58
2019-02-25T07:00:30.449Z,47.34
2019-02-25T07:03:00.001Z,47.31
2019-02-25T07:05:51.264Z,46.75
2019-02-25T07:08:38.092Z,46.98
2019-02-25T07:11:25.218Z,47.01
2019-02-25T07:14:23.016Z,46.69
2019-02-25T07:17:08.898Z,46.48
2019-02-25T07:19:56.231Z,46.09
2019-02-25T07:22:35.007Z,45.83
2019-02-25T07:25:13.100Z,45.81
2019-02-25T07:28:10.738Z,45.74
2019-02-25T07:31:14.145Z,45.17
2019-02-25T07:34:10.812Z,45.19
2019-02-25T07:36:53.231Z,45.88
2019-02-25T07:39:47.583Z,46.61
2019-02-25T07:42:44.882Z,46.13
2019-02-25T07:45:25.894Z,45.77
2019-02-25T07:48:00.681Z,45.46
2019-02-25T07:50:47.601Z,45.49
2019-02-25T07:53:22.677Z,45.11
2019-02-25T07:56:11.883Z,45.29
2019-02-25T07:58:53.005Z,44.08
2019-02-25T08:01:56.562Z,41.66
2019-02-25T08:04:57.248Z,38.11
2019-02-25T08:07:44.017Z,34.91
2019-02-25T08:10:47.654Z,32.77
2019-02-25T08:13:50.768Z,31.20
2019-02-25T08:16:39.234Z,29.05
2019-02-25T08:19:27.494Z,28.45
2019-02-25T08:22:16.359Z,27.73
2019-02-25T08:25:04.571Z,27.56
2019-02-25T08:27:45.073Z,28.06
2019-02-25T08:30:41.203Z,28.27
2019-02-25T08:33:18.334Z,28.77
2019-02-25T08:36:43.669Z,28.57
2019-02-25T08:39:20.328Z,28.54
2019-02-25T08:42:04.336Z,29.13
2019-02-25T08:44:57.608Z,28.91
2019-02-25T08:47:38.130Z,28.95
2019-02-25T08:50:10.199Z,29.43
2019-02-25T08:52:40.434Z,29.63
2019-02-25T08:55:10.259Z,29.90
2019-02-25T08:57:42.104Z,29.57
2019-02-25T09:00:12.838Z,30.22
2019-02-25T09:02:42.139Z,30.03
2019-02-25T09:05:12.858Z,30.94
2019-02-25T09:07:42.828Z,30.34
2019-02-25T09:10:13.517Z,30.22
2019-02-25T09:12:42.917Z,30.44
2019-02-25T09:15:12.477Z,30.88
2019-02-25T09:17:44.023Z,31.18
2019-02-25T09:20:14.156Z,30.77
2019-02-25T09:22:43.443Z,30.68
2019-02-25T09:25:13.201Z,30.37
2019-02-25T09:27:42.477Z,29.97
2019-02-25T09:30:14.276Z,29.73
2019-02-25T09:32:43.865Z,30.10
2019-02-25T09:35:13.221Z,29.19
2019-02-25T09:37:42.465Z,28.85
2019-02-25T09:40:13.897Z,28.95
2019-02-25T09:42:43.171Z,28.16
2019-02-25T09:45:13.779Z,28.37
2019-02-25T09:47:43.511Z,28.74
2019-02-25T09:50:13.395Z,28.23
2019-02-25T09:52:42.709Z,28.00
2019-02-25T09:55:13.499Z,27.89
2019-02-25T09:57:47.324Z,27.42
2019-02-25T10:00:16.998Z,26.95
2019-02-25T10:02:46.570Z,26.66
2019-02-25T10:05:16.036Z,26.14
2019-02-25T10:07:45.335Z,25.85
2019-02-25T10:10:14.986Z,25.18
2019-02-25T10:12:44.449Z,24.85
2019-02-25T10:15:14.541Z,24.37
2019-02-25T10:17:44.508Z,23.84
2019-02-25T10:20:21.560Z,23.71
2019-02-25T10:22:51.094Z,23.13
2019-02-25T10:25:20.339Z,22.72
2019-02-25T10:27:49.924Z,22.32
2019-02-25T10:30:19.528Z,21.94
2019-02-25T10:32:49.785Z,22.12
2019-02-25T10:35:20.365Z,21.59
2019-02-25T10:37:49.644Z,21.38
2019-02-25T10:40:22.626Z,21.21
2019-02-25T10:42:50.452Z,21.05
2019-02-25T10:45:19.734Z,20.88
2019-02-25T10:47:51.038Z,20.41
2019-02-25T10:50:20.576Z,20.11
2019-02-25T10:52:52.197Z,19.59
2019-02-25T10:55:36.991Z,19.38
2019-02-25T10:58:07.795Z,18.76
2019-02-25T11:00:39.430Z,18.70
2019-02-25T11:03:08.409Z,18.29
2019-02-25T11:05:46.075Z,17.83
2019-02-25T11:08:17.294Z,17.68
2019-02-25T11:10:53.204Z,17.83
2019-02-25T11:13:23.470Z,17.49
2019-02-25T11:15:52.783Z,16.94
2019-02-25T11:18:24.105Z,17.04
2019-02-25T11:20:53.337Z,17.06
2019-02-25T11:23:22.590Z,16.67
2019-02-25T11:25:53.548Z,16.25
2019-02-25T11:28:25.904Z,15.73
2019-02-25T11:30:54.331Z,15.38
2019-02-25T11:33:25.270Z,14.81
2019-02-25T11:35:55.021Z,14.72
2019-02-25T11:38:26.011Z,14.29
2019-02-25T11:40:55.302Z,13.91
2019-02-25T11:43:24.937Z,13.83
2019-02-25T11:45:54.206Z,13.29
2019-02-25T11:48:23.735Z,13.38
2019-02-25T11:50:53.387Z,13.35
2019-02-25T11:53:22.644Z,12.80
2019-02-25T11:55:51.928Z,12.72
2019-02-25T11:58:21.891Z,12.62
2019-02-25T12:00:51.547Z,12.35
2019-02-25T12:03:21.251Z,12.21
2019-02-25T12:05:52.507Z,11.70
2019-02-25T12:08:22.207Z,11.58
2019-02-25T12:10:51.529Z,12.21
2019-02-25T12:13:21.144Z,11.67
2019-02-25T12:15:50.404Z,11.64
2019-02-25T12:18:19.685Z,11.66
2019-02-25T12:20:49.305Z,11.77
2019-02-25T12:23:18.681Z,11.97
2019-02-25T12:25:47.950Z,11.97
2019-02-25T12:28:17.540Z,11.87
2019-02-25T12:30:46.829Z,12.10
2019-02-25T12:33:18.276Z,12.59
2019-02-25T12:35:48.121Z,12.20
2019-02-25T12:38:17.378Z,12.38
2019-02-25T12:40:46.720Z,12.07
2019-02-25T12:43:16.451Z,12.17
2019-02-25T12:45:45.804Z,12.25
2019-02-25T12:48:15.472Z,12.88
2019-02-25T12:50:45.066Z,12.90
2019-02-25T12:53:14.664Z,13.06
2019-02-25T12:55:44.158Z,13.35
2019-02-25T12:58:14.049Z,13.31
2019-02-25T13:00:43.344Z,13.95
2019-02-25T13:03:12.659Z,13.58
2019-02-25T13:05:42.314Z,13.64
2019-02-25T13:08:11.576Z,13.67
2019-02-25T13:10:41.433Z,13.82
2019-02-25T13:13:11.090Z,13.85
2019-02-25T13:15:40.546Z,14.05
2019-02-25T13:18:11.809Z,14.23
2019-02-25T13:20:41.409Z,14.00
2019-02-25T13:23:10.679Z,14.00
2019-02-25T13:25:40.026Z,14.21
2019-02-25T13:28:09.732Z,14.35
2019-02-25T13:30:39.062Z,14.51
2019-02-25T13:33:08.368Z,14.28
2019-02-25T13:35:37.990Z,14.31
2019-02-25T13:38:07.301Z,14.42
2019-02-25T13:40:36.830Z,14.77
2019-02-25T13:43:06.467Z,14.59
2019-02-25T13:45:35.785Z,14.52
2019-02-25T13:48:08.177Z,14.69
2019-02-25T13:50:37.816Z,14.67
2019-02-25T13:53:07.099Z,14.65
2019-02-25T13:55:36.439Z,14.73
2019-02-25T13:58:06.090Z,14.46
2019-02-25T14:00:35.493Z,14.73
2019-02-25T14:03:05.165Z,14.67
2019-02-25T14:05:34.912Z,15.06
2019-02-25T14:08:07.150Z,15.49
2019-02-25T14:10:36.560Z,16.29
2019-02-25T14:13:06.276Z,16.45
2019-02-25T14:15:35.881Z,16.69
2019-02-25T14:18:08.561Z,16.85
2019-02-25T14:20:37.883Z,16.85
2019-02-25T14:23:07.322Z,16.72
2019-02-25T14:25:38.334Z,16.99
2019-02-25T14:28:08.940Z,17.13
2019-02-25T14:30:39.054Z,17.35
2019-02-25T14:33:08.322Z,17.72
2019-02-25T14:35:37.616Z,17.76
2019-02-25T14:38:10.169Z,17.71
2019-02-25T14:40:43.802Z,17.84
2019-02-25T14:43:14.734Z,17.79
2019-02-25T14:45:44.425Z,17.69
2019-02-25T14:48:18.184Z,17.57
2019-02-25T14:50:44.552Z,17.61
2019-02-25T14:53:14.565Z,17.63
2019-02-25T14:55:46.957Z,17.94
2019-02-25T14:58:17.497Z,18.33
2019-02-25T15:00:48.461Z,18.60
2019-02-25T15:03:20.042Z,19.08
2019-02-25T15:05:52.431Z,19.22
2019-02-25T15:08:21.890Z,19.58
2019-02-25T15:10:52.328Z,19.99
2019-02-25T15:13:24.422Z,20.03
2019-02-25T15:15:54.260Z,20.40
2019-02-25T15:18:25.200Z,20.34
2019-02-25T15:20:56.437Z,21.04
2019-02-25T15:23:27.997Z,21.18
2019-02-25T15:26:05.013Z,21.29
2019-02-25T15:28:28.519Z,21.35
2019-02-25T15:30:58.275Z,21.72
2019-02-25T15:33:30.013Z,22.01
2019-02-25T15:36:01.359Z,22.07
2019-02-25T15:38:32.656Z,22.10
2019-02-25T15:41:04.455Z,22.23
2019-02-25T15:43:33.352Z,22.02
2019-02-25T15:46:05.116Z,21.76
2019-02-25T15:48:36.894Z,21.58
2019-02-25T15:51:05.803Z,21.44
2019-02-25T15:53:35.540Z,21.08
2019-02-25T15:56:07.652Z,21.00
2019-02-25T15:58:37.147Z,20.74
2019-02-25T16:01:06.665Z,20.35
2019-02-25T16:03:37.136Z,20.27
2019-02-25T16:06:10.605Z,20.25
2019-02-25T16:08:40.196Z,20.13
2019-02-25T16:11:11.666Z,20.00
2019-02-25T16:13:41.830Z,20.12
2019-02-25T16:16:12.183Z,20.81
2019-02-25T16:18:42.566Z,20.46
2019-02-25T16:21:13.283Z,20.87
2019-02-25T16:23:43.683Z,20.71
2019-02-25T16:26:16.055Z,21.17
2019-02-25T16:28:45.898Z,21.33
2019-02-25T16:31:15.654Z,21.60
2019-02-25T16:33:46.912Z,22.23
2019-02-25T16:36:17.067Z,22.89
2019-02-25T16:38:46.824Z,23.20
2019-02-25T16:41:16.518Z,23.21
2019-02-25T16:43:46.273Z,23.47
2019-02-25T16:46:17.869Z,23.78
2019-02-25T16:48:48.389Z,24.15
2019-02-25T16:51:19.208Z,24.56
2019-02-25T16:53:51.879Z,24.58
2019-02-25T16:56:20.344Z,24.87
2019-02-25T16:58:52.193Z,25.07
2019-02-25T17:01:25.805Z,25.42
2019-02-25T17:03:53.768Z,25.64
2019-02-25T17:06:23.573Z,25.76
2019-02-25T17:08:55.180Z,26.55
2019-02-25T17:11:24.571Z,26.75
2019-02-25T17:13:55.112Z,26.86
2019-02-25T17:16:26.030Z,26.79
2019-02-25T17:18:56.019Z,27.01
2019-02-25T17:21:28.256Z,27.25
2019-02-25T17:24:00.445Z,27.38
2019-02-25T17:26:29.745Z,27.74
2019-02-25T17:29:07.275Z,27.44
2019-02-25T17:31:46.069Z,27.45
2019-02-25T17:34:17.001Z,27.77
2019-02-25T17:36:49.865Z,27.74
2019-02-25T17:39:19.409Z,27.95
2019-02-25T17:41:49.378Z,28.02
2019-02-25T17:44:20.726Z,28.20
2019-02-25T17:46:50.886Z,28.32
2019-02-25T17:49:22.549Z,28.45
2019-02-25T17:51:53.289Z,28.74
2019-02-25T17:54:24.087Z,28.92
2019-02-25T17:56:53.861Z,29.44
2019-02-25T17:59:25.195Z,29.50
2019-02-25T18:01:58.273Z,29.72
2019-02-25T18:04:28.736Z,29.68
2019-02-25T18:06:59.635Z,29.85
2019-02-25T18:09:29.713Z,29.99
2019-02-25T18:12:06.509Z,30.19
2019-02-25T18:14:38.938Z,30.41
2019-02-25T18:17:10.348Z,30.63
2019-02-25T18:19:41.720Z,30.92
2019-02-25T18:22:13.778Z,31.10
2019-02-25T18:24:44.450Z,31.31
2019-02-25T18:27:14.280Z,31.55
2019-02-25T18:29:46.261Z,31.88
2019-02-25T18:32:15.614Z,32.12
2019-02-25T18:34:45.909Z,32.63
2019-02-25T18:37:17.579Z,32.60
2019-02-25T18:39:49.979Z,33.08
2019-02-25T18:42:25.970Z,33.56
2019-02-25T18:44:55.753Z,33.74
2019-02-25T18:47:27.296Z,34.00
2019-02-25T18:49:58.747Z,34.18
2019-02-25T18:52:29.676Z,34.47
2019-02-25T18:55:02.781Z,34.95
2019-02-25T18:57:32.989Z,35.13
2019-02-25T19:00:06.275Z,35.29
2019-02-25T19:02:38.019Z,35.44
2019-02-25T19:05:13.019Z,35.69
2019-02-25T19:07:40.786Z,36.18
2019-02-25T19:10:12.505Z,36.57
2019-02-25T19:12:43.873Z,36.77
2019-02-25T19:15:18.869Z,36.85
2019-02-25T19:17:50.138Z,36.93
2019-02-25T19:20:21.142Z,37.33
2019-02-25T19:22:52.567Z,37.14
2019-02-25T19:25:23.697Z,37.24
2019-02-25T19:27:56.449Z,37.40
2019-02-25T19:30:27.840Z,37.61
2019-02-25T19:33:09.053Z,37.74
2019-02-25T19:35:33.034Z,37.78
2019-02-25T19:38:05.825Z,37.98
2019-02-25T19:40:40.268Z,38.39
2019-02-25T19:43:09.537Z,37.92
2019-02-25T19:45:40.962Z,37.92
2019-02-25T19:48:11.791Z,38.26
2019-02-25T19:50:50.608Z,38.28
2019-02-25T19:53:15.347Z,38.41
2019-02-25T19:55:46.099Z,38.70
2019-02-25T19:58:19.030Z,39.11
2019-02-25T20:00:52.976Z,39.01
2019-02-25T20:03:22.376Z,39.06
2019-02-25T20:05:54.555Z,39.26
2019-02-25T20:08:25.694Z,39.33
2019-02-25T20:10:55.667Z,39.37
2019-02-25T20:13:25.581Z,39.59
2019-02-25T20:15:55.857Z,39.76
2019-02-25T20:18:26.730Z,40.09
2019-02-25T20:20:57.768Z,40.17
2019-02-25T20:23:29.232Z,40.38
2019-02-25T20:26:00.300Z,40.31
2019-02-25T20:28:31.130Z,40.47
2019-02-25T20:31:05.646Z,40.40
2019-02-25T20:33:37.384Z,40.50
2019-02-25T20:36:09.228Z,40.54
2019-02-25T20:38:42.354Z,40.57
2019-02-25T20:41:16.012Z,40.69
2019-02-25T20:43:52.065Z,40.76
2019-02-25T20:46:21.944Z,41.24
2019-02-25T20:48:56.108Z,41.55
2019-02-25T20:51:29.169Z,41.34
2019-02-25T20:53:59.428Z,41.40
2019-02-25T20:56:31.055Z,41.28
2019-02-25T20:59:05.142Z,41.60
2019-02-25T21:01:37.136Z,41.82
2019-02-25T21:04:13.579Z,41.42
2019-02-25T21:06:44.417Z,41.12
2019-02-25T21:09:14.443Z,41.20
2019-02-25T21:11:44.656Z,41.30
2019-02-25T21:14:29.547Z,41.42
2019-02-25T21:17:01.003Z,41.52
2019-02-25T21:19:30.968Z,41.66
2019-02-25T21:22:08.850Z,41.61
2019-02-25T21:24:39.723Z,41.62
2019-02-25T21:27:10.419Z,41.85
2019-02-25T21:29:41.212Z,41.80
2019-02-25T21:32:15.337Z,41.83
2019-02-25T21:34:46.519Z,41.88
2019-02-25T21:37:14.677Z,41.88
2019-02-25T21:39:44.679Z,41.98
2019-02-25T21:42:17.089Z,41.79
2019-02-25T21:44:50.120Z,42.00
2019-02-25T21:47:20.371Z,41.75
2019-02-25T21:49:52.463Z,41.49
2019-02-25T21:52:23.965Z,41.81
2019-02-25T21:54:53.406Z,42.11
2019-02-25T21:57:23.255Z,41.81
2019-02-25T21:59:54.678Z,41.80
2019-02-25T22:02:24.511Z,41.82
2019-02-25T22:04:57.138Z,41.51
2019-02-25T22:07:29.364Z,41.22
2019-02-25T22:10:00.226Z,41.19
2019-02-25T22:12:32.756Z,41.35
2019-02-25T22:15:00.506Z,41.17
2019-02-25T22:17:29.770Z,41.33
2019-02-25T22:19:59.160Z,41.57
2019-02-25T22:22:30.684Z,41.66
2019-02-25T22:25:04.074Z,41.67
2019-02-25T22:27:31.623Z,41.90
2019-02-25T22:30:02.934Z,42.14
2019-02-25T22:32:33.581Z,42.28
2019-02-25T22:35:04.901Z,42.37
2019-02-25T22:37:34.166Z,42.47
2019-02-25T22:40:07.976Z,42.68
2019-02-25T22:42:38.087Z,42.96
2019-02-25T22:45:09.914Z,43.11
2019-02-25T22:47:40.027Z,43.37
2019-02-25T22:50:10.799Z,43.41
2019-02-25T22:52:41.037Z,43.70
2019-02-25T22:55:15.288Z,43.52
2019-02-25T22:57:46.037Z,43.60
2019-02-25T23:00:51.118Z,43.76
2019-02-25T23:03:22.728Z,43.91
2019-02-25T23:05:53.283Z,44.01
2019-02-25T23:08:25.357Z,44.19
2019-02-25T23:10:54.205Z,44.63
2019-02-25T23:13:25.041Z,44.88
2019-02-25T23:15:55.170Z,45.89
2019-02-25T23:18:25.907Z,46.44
2019-02-25T23:20:59.672Z,46.91
2019-02-25T23:23:28.664Z,47.54
2019-02-25T23:25:58.607Z,47.52
2019-02-25T23:28:28.666Z,47.82
2019-02-25T23:30:58.855Z,47.93
2019-02-25T23:33:28.501Z,47.65
2019-02-25T23:35:58.227Z,47.43
2019-02-25T23:38:27.545Z,47.43
2019-02-25T23:41:01.268Z,47.51
2019-02-25T23:43:28.362Z,47.97
2019-02-25T23:46:00.063Z,48.10
2019-02-25T23:48:32.857Z,48.22
2019-02-25T23:51:00.702Z,48.20
2019-02-25T23:53:31.096Z,47.96
2019-02-25T23:56:05.183Z,47.95
2019-02-25T23:58:38.333Z,48.09
